Terminal Aerodrome Forecast
Issued by NWS Charleston, WV

Current Version | Previous Version | Graphics & Text | Print | Product List | Glossary On
Versions: 1 2 3 4 5 6 7 8 9 10 11 12 13 14 15 16 17 18 19
000
FTUS41 KRLX 251700
TAFPKB
TAF
KPKB 251722Z 2518/2618 VRB03KT P6SM SCT250
     FM252200 02003KT P6SM SCT120 BKN250
     FM260300 03004KT P6SM BKN100
     FM260800 03006KT P6SM OVC080
     FM261400 36004KT P6SM BKN035=

USA.gov is the U.S. government's official web portal to all federal, state and local government web resources and services.